Time;durP1;ratioP1;P1;durP2;ratioP2;P2;SDS_P1;SDS_P2;PMS_P1;PMS_P2;Temp;Humidity;BMP_temperature;BMP_pressure;BME280_temperature;BME280_humidity;BME280_pressure;Samples;Min_cycle;Max_cycle;Signal;HPM_P1;HPM_P2
2022/07/22 00:00:14;;;;;;;42.25;18.48;;;;;;;;;;7309427;19;154395;-16
2022/07/22 00:02:45;;;;;;;34.38;17.30;;;;;;;;;;7309587;19;162737;-16
2022/07/22 00:05:16;;;;;;;38.92;17.90;;;;;;;;;;7308037;19;163190;-16
2022/07/22 00:07:47;;;;;;;40.00;18.92;;;;;;;;;;7309344;19;155223;-15
2022/07/22 00:10:21;;;;;;;41.58;17.67;;;;;;;;;;7308927;19;154039;-16
2022/07/22 00:12:54;;;;;;;36.75;17.38;;;;;;;;;;7307925;19;163700;-15
2022/07/22 00:15:25;;;;;;;38.85;17.30;;;;;;;;;;7307612;19;163908;-16
2022/07/22 00:17:57;;;;;;;38.17;18.55;;;;;;;;;;7313254;19;154789;-15
2022/07/22 00:20:28;;;;;;;38.38;16.45;;;;;;;;;;7311929;19;154075;-16
2022/07/22 00:22:59;;;;;;;39.08;17.38;;;;;;;;;;7304184;19;162269;-15
2022/07/22 00:25:33;;;;;;;35.58;17.92;;;;;;;;;;7307788;19;163057;-16
2022/07/22 00:28:04;;;;;;;42.60;18.15;;;;;;;;;;7308060;19;154415;-15
2022/07/22 00:30:35;;;;;;;36.38;17.35;;;;;;;;;;7310790;19;153972;-15
2022/07/22 00:33:07;;;;;;;34.15;16.55;;;;;;;;;;7307982;19;162670;-15
2022/07/22 00:35:38;;;;;;;33.22;16.65;;;;;;;;;;7305451;19;162817;-16
2022/07/22 00:38:14;;;;;;;38.72;16.73;;;;;;;;;;7308201;19;154497;-16
2022/07/22 00:40:48;;;;;;;33.53;17.95;;;;;;;;;;7307744;19;154059;-15
2022/07/22 00:43:23;;;;;;;34.28;14.95;;;;;;;;;;7309427;19;162635;-15
2022/07/22 00:45:54;;;;;;;39.05;16.13;;;;;;;;;;7308059;19;162708;-15
2022/07/22 00:48:26;;;;;;;12.38;6.47;;;;;;;;;;7305682;19;154939;-16
2022/07/22 00:51:00;;;;;;;15.05;8.10;;;;;;;;;;7310392;19;154876;-15
2022/07/22 00:53:31;;;;;;;11.63;6.85;;;;;;;;;;7310699;19;162757;-16
2022/07/22 00:56:06;;;;;;;16.15;8.48;;;;;;;;;;7309106;19;163124;-15
2022/07/22 00:58:39;;;;;;;15.48;8.45;;;;;;;;;;7311205;19;154475;-16
2022/07/22 01:01:10;;;;;;;16.25;7.95;;;;;;;;;;7311277;19;154832;-16
2022/07/22 01:03:42;;;;;;;16.65;8.32;;;;;;;;;;7310892;19;162884;-15
2022/07/22 01:06:16;;;;;;;16.90;8.65;;;;;;;;;;7310496;19;163183;-16
2022/07/22 01:08:47;;;;;;;19.30;8.75;;;;;;;;;;7314865;19;154275;-16
2022/07/22 01:11:22;;;;;;;15.00;9.10;;;;;;;;;;7317609;19;153442;-15
2022/07/22 01:13:58;;;;;;;13.68;8.77;;;;;;;;;;7317361;19;162328;-16
2022/07/22 01:16:29;;;;;;;15.38;8.40;;;;;;;;;;7317260;19;162835;-15
2022/07/22 01:19:00;;;;;;;20.42;9.38;;;;;;;;;;7316005;19;154833;-16
2022/07/22 01:21:34;;;;;;;17.58;8.90;;;;;;;;;;7317162;19;154067;-16
2022/07/22 01:24:07;;;;;;;21.48;8.38;;;;;;;;;;7316870;19;162196;-15
2022/07/22 01:26:38;;;;;;;18.05;8.93;;;;;;;;;;7316988;19;162370;-16
2022/07/22 01:29:11;;;;;;;14.23;8.55;;;;;;;;;;7314210;19;154599;-16
2022/07/22 01:31:42;;;;;;;15.75;7.90;;;;;;;;;;7315605;19;154135;-16
2022/07/22 01:34:14;;;;;;;17.55;8.88;;;;;;;;;;7315009;19;161952;-15
2022/07/22 01:36:48;;;;;;;14.13;8.45;;;;;;;;;;7315468;19;162846;-15
2022/07/22 01:39:20;;;;;;;15.05;8.15;;;;;;;;;;7315658;19;155163;-15
2022/07/22 01:41:51;;;;;;;16.73;9.23;;;;;;;;;;7315546;19;153974;-15
2022/07/22 01:44:22;;;;;;;13.63;7.43;;;;;;;;;;7314839;19;162271;-16
2022/07/22 01:46:54;;;;;;;18.92;9.52;;;;;;;;;;7314846;19;163289;-16
2022/07/22 01:49:30;;;;;;;14.27;8.10;;;;;;;;;;7313338;19;154455;-16
2022/07/22 01:52:04;;;;;;;28.95;9.38;;;;;;;;;;7315008;19;154166;-16
2022/07/22 01:54:35;;;;;;;16.30;8.10;;;;;;;;;;7314668;19;162315;-16
2022/07/22 01:57:09;;;;;;;14.30;8.43;;;;;;;;;;7314366;19;162948;-15
2022/07/22 01:59:47;;;;;;;14.38;8.27;;;;;;;;;;7314887;19;154448;-16
2022/07/22 02:02:21;;;;;;;15.93;8.53;;;;;;;;;;7314740;19;154402;-16
2022/07/22 02:04:52;;;;;;;13.68;8.02;;;;;;;;;;7314193;19;162308;-16
2022/07/22 02:07:27;;;;;;;15.75;8.38;;;;;;;;;;7314417;19;162408;-15
2022/07/22 02:09:58;;;;;;;17.42;8.93;;;;;;;;;;7312363;19;154564;-16
2022/07/22 02:12:33;;;;;;;15.68;8.45;;;;;;;;;;7314365;19;154180;-16
2022/07/22 02:15:06;;;;;;;;;;;;;;;;;;7314675;19;162794;-16
2022/07/22 02:17:37;;;;;;;14.80;8.30;;;;;;;;;;7315687;19;163184;-16
2022/07/22 02:20:12;;;;;;;17.98;8.20;;;;;;;;;;7312768;19;155047;-16
2022/07/22 02:22:46;;;;;;;13.52;8.60;;;;;;;;;;7315636;19;155007;-16
2022/07/22 02:25:17;;;;;;;13.63;7.68;;;;;;;;;;7313886;19;162885;-16
2022/07/22 02:27:49;;;;;;;13.05;7.78;;;;;;;;;;7313486;19;163276;-16
2022/07/22 02:30:20;;;;;;;13.77;8.13;;;;;;;;;;7313108;19;154473;-16
2022/07/22 02:32:51;;;;;;;14.27;8.30;;;;;;;;;;7315287;19;154389;-16
2022/07/22 02:35:23;;;;;;;13.55;8.07;;;;;;;;;;7313525;19;163494;-16
2022/07/22 02:37:57;;;;;;;16.70;8.43;;;;;;;;;;7312952;19;162888;-16
2022/07/22 02:40:31;;;;;;;13.45;7.72;;;;;;;;;;7313699;19;154559;-16
2022/07/22 02:43:05;;;;;;;16.95;8.07;;;;;;;;;;7313352;19;154039;-16
2022/07/22 02:45:38;;;;;;;12.25;7.80;;;;;;;;;;7312985;19;162266;-16
2022/07/22 02:48:10;;;;;;;14.60;8.13;;;;;;;;;;7313167;19;162869;-15
2022/07/22 02:50:47;;;;;;;15.02;7.82;;;;;;;;;;7311101;19;154334;-16
2022/07/22 02:53:26;;;;;;;12.20;7.78;;;;;;;;;;7312959;19;153993;-16
2022/07/22 02:55:57;;;;;;;13.63;7.65;;;;;;;;;;7312689;19;162372;-16
2022/07/22 02:58:28;;;;;;;10.50;7.45;;;;;;;;;;7314243;19;162971;-16
2022/07/22 03:01:00;;;;;;;14.77;7.78;;;;;;;;;;7312982;19;154839;-18
2022/07/22 03:03:35;;;;;;;14.82;8.43;;;;;;;;;;7312715;19;153693;-15
2022/07/22 03:06:10;;;;;;;12.10;8.18;;;;;;;;;;7312363;19;162243;-16
2022/07/22 03:08:50;;;;;;;14.85;8.30;;;;;;;;;;7312406;19;163080;-16
2022/07/22 03:11:21;;;;;;;12.65;6.32;;;;;;;;;;7313265;19;154594;-16
2022/07/22 03:13:54;;;;;;;12.57;7.97;;;;;;;;;;7314091;19;154491;-16
2022/07/22 03:16:25;;;;;;;11.48;7.25;;;;;;;;;;7312144;19;162639;-17
2022/07/22 03:18:56;;;;;;;12.82;7.78;;;;;;;;;;7313822;19;163261;-16
2022/07/22 03:21:28;;;;;;;13.02;6.65;;;;;;;;;;7312471;19;154390;-17
2022/07/22 03:24:02;;;;;;;11.75;6.75;;;;;;;;;;7312536;19;154001;-16
2022/07/22 03:26:35;;;;;;;11.93;7.55;;;;;;;;;;7311849;19;162385;-16
2022/07/22 03:29:07;;;;;;;12.27;7.85;;;;;;;;;;7309939;19;163358;-21
2022/07/22 03:31:39;;;;;;;12.52;7.47;;;;;;;;;;7309630;19;154444;-16
2022/07/22 03:34:11;;;;;;;11.45;7.47;;;;;;;;;;7312031;19;154183;-16
2022/07/22 03:36:49;;;;;;;11.40;7.18;;;;;;;;;;7311675;19;162778;-16
2022/07/22 03:39:23;;;;;;;12.18;7.15;;;;;;;;;;7311577;19;162991;-16
2022/07/22 03:41:54;;;;;;;12.65;7.82;;;;;;;;;;7313527;19;154458;-16
2022/07/22 03:44:26;;;;;;;11.47;7.23;;;;;;;;;;7311797;19;154690;-16
2022/07/22 03:46:57;;;;;;;12.55;7.00;;;;;;;;;;7312816;19;162799;-16
2022/07/22 03:49:29;;;;;;;11.75;6.95;;;;;;;;;;7310947;19;163262;-16
2022/07/22 03:52:01;;;;;;;10.85;6.93;;;;;;;;;;7311623;19;155035;-16
2022/07/22 03:54:35;;;;;;;11.33;6.70;;;;;;;;;;7311424;19;154018;-16
2022/07/22 03:57:09;;;;;;;15.20;7.75;;;;;;;;;;7311394;19;162648;-16
2022/07/22 03:59:42;;;;;;;9.55;7.07;;;;;;;;;;7310993;19;163390;-16
2022/07/22 04:02:15;;;;;;;11.57;7.30;;;;;;;;;;7311155;19;154852;-16
2022/07/22 04:04:46;;;;;;;11.20;7.03;;;;;;;;;;7311170;19;154003;-15
2022/07/22 04:07:18;;;;;;;;;;;;;;;;;;7311509;19;162385;-15
2022/07/22 04:10:04;;;;;;;12.80;7.53;;;;;;;;;;7310219;19;163937;-16
2022/07/22 04:12:42;;;;;;;12.82;7.00;;;;;;;;;;7310920;19;154904;-16
2022/07/22 04:15:19;;;;;;;10.57;6.88;;;;;;;;;;7311097;19;154584;-16
2022/07/22 04:17:50;;;;;;;14.13;7.45;;;;;;;;;;7310546;19;162575;-16
2022/07/22 04:20:24;;;;;;;8.32;6.57;;;;;;;;;;7310185;19;162812;-16
2022/07/22 04:23:34;;;;;;;9.73;6.75;;;;;;;;;;7311563;19;154617;-15
2022/07/22 04:26:16;;;;;;;8.73;6.78;;;;;;;;;;7310895;19;154109;-16
2022/07/22 04:28:48;;;;;;;9.02;6.38;;;;;;;;;;7308995;19;162472;-16
2022/07/22 04:31:21;;;;;;;11.15;7.15;;;;;;;;;;7307935;19;163227;-16
2022/07/22 04:33:59;;;;;;;10.05;6.50;;;;;;;;;;7310582;19;154475;-16
2022/07/22 04:36:34;;;;;;;13.43;6.78;;;;;;;;;;7310479;19;153929;-16
2022/07/22 04:39:09;;;;;;;8.73;5.70;;;;;;;;;;7309949;19;162204;-16
2022/07/22 04:41:48;;;;;;;13.50;7.28;;;;;;;;;;7312144;19;163235;-16
2022/07/22 04:44:22;;;;;;;9.23;6.50;;;;;;;;;;7326053;19;153988;-15
2022/07/22 04:46:53;;;;;;;9.70;6.00;;;;;;;;;;7325806;19;154647;-16
2022/07/22 04:49:26;;;;;;;11.27;6.75;;;;;;;;;;7323969;19;162832;-16
2022/07/22 04:52:00;;;;;;;10.90;6.93;;;;;;;;;;7321093;19;163265;-16
2022/07/22 04:54:43;;;;;;;10.93;6.30;;;;;;;;;;7324172;19;154493;-16
2022/07/22 04:57:19;;;;;;;9.98;6.38;;;;;;;;;;7323818;19;154336;-16
2022/07/22 04:59:53;;;;;;;10.45;6.60;;;;;;;;;;7323820;19;162416;-16
2022/07/22 05:02:25;;;;;;;10.57;6.60;;;;;;;;;;7324836;19;163291;-16
2022/07/22 05:04:56;;;;;;;9.43;6.40;;;;;;;;;;7325251;19;154372;-16
2022/07/22 05:07:30;;;;;;;10.35;6.47;;;;;;;;;;7325293;19;154371;-16
2022/07/22 05:10:01;;;;;;;10.38;6.88;;;;;;;;;;7323367;19;162366;-16
2022/07/22 05:12:38;;;;;;;11.73;6.45;;;;;;;;;;7323071;19;163207;-16
2022/07/22 05:15:11;;;;;;;10.27;6.90;;;;;;;;;;7323067;19;154622;-16
2022/07/22 05:17:43;;;;;;;10.18;5.85;;;;;;;;;;7323126;19;154560;-15
2022/07/22 05:20:22;;;;;;;9.52;6.63;;;;;;;;;;7322930;19;162792;-18
2022/07/22 05:22:54;;;;;;;11.75;6.40;;;;;;;;;;7324275;19;163416;-15
2022/07/22 05:25:29;;;;;;;11.63;6.32;;;;;;;;;;7323060;19;155128;-15
2022/07/22 05:28:03;;;;;;;9.87;6.73;;;;;;;;;;7322605;19;153997;-15
2022/07/22 05:30:37;;;;;;;8.60;5.93;;;;;;;;;;7321350;19;162198;-15
2022/07/22 05:33:12;;;;;;;9.48;6.15;;;;;;;;;;7322169;19;162824;-16
2022/07/22 05:36:02;;;;;;;14.23;5.40;;;;;;;;;;7324007;19;154063;-16
2022/07/22 05:38:39;;;;;;;20.95;6.65;;;;;;;;;;7322845;19;154039;-15
2022/07/22 05:41:11;;;;;;;31.77;7.55;;;;;;;;;;7322782;19;162267;-15
2022/07/22 05:43:45;;;;;;;29.48;7.97;;;;;;;;;;7321356;19;163003;-16
2022/07/22 05:46:18;;;;;;;27.83;7.57;;;;;;;;;;7323872;19;154397;-16
2022/07/22 05:48:50;;;;;;;;;;;;;;;;;;7322950;19;154353;-16
2022/07/22 05:51:22;;;;;;;17.75;4.70;;;;;;;;;;7320971;19;162485;-16
2022/07/22 05:53:53;;;;;;;14.70;4.63;;;;;;;;;;7316331;19;163015;-18
2022/07/22 05:56:25;;;;;;;16.33;5.50;;;;;;;;;;7314930;19;154407;-16
2022/07/22 05:58:59;;;;;;;11.38;4.68;;;;;;;;;;7313129;19;153976;-16
2022/07/22 06:01:33;;;;;;;16.17;4.20;;;;;;;;;;7314333;19;162330;-16
2022/07/22 06:04:11;;;;;;;14.00;4.13;;;;;;;;;;7314147;19;163405;-15
2022/07/22 06:06:44;;;;;;;18.27;4.80;;;;;;;;;;7314518;19;154579;-16
2022/07/22 06:09:15;;;;;;;21.65;4.95;;;;;;;;;;7314192;19;154079;-16
2022/07/22 06:11:47;;;;;;;14.47;3.80;;;;;;;;;;7312797;19;162350;-16
2022/07/22 06:14:21;;;;;;;14.13;4.00;;;;;;;;;;7315359;19;163237;-16
2022/07/22 06:16:53;;;;;;;9.55;3.17;;;;;;;;;;7314355;19;154066;-16
2022/07/22 06:19:25;;;;;;;9.40;3.37;;;;;;;;;;7314452;19;154642;-16
2022/07/22 06:21:58;;;;;;;8.73;3.17;;;;;;;;;;7313623;19;162219;-16
2022/07/22 06:24:32;;;;;;;8.93;3.30;;;;;;;;;;7313750;19;162921;-16
2022/07/22 06:27:03;;;;;;;9.35;2.85;;;;;;;;;;7314051;19;154548;-15
2022/07/22 06:29:37;;;;;;;7.72;3.55;;;;;;;;;;7313727;19;154024;-15
2022/07/22 06:32:11;;;;;;;7.07;3.35;;;;;;;;;;7312226;19;162333;-15
2022/07/22 06:34:43;;;;;;;6.65;3.00;;;;;;;;;;7313338;19;163390;-16
2022/07/22 06:37:14;;;;;;;7.97;2.90;;;;;;;;;;7314043;19;154437;-16
2022/07/22 06:39:46;;;;;;;8.35;2.67;;;;;;;;;;7313719;19;154203;-18
2022/07/22 06:42:20;;;;;;;7.85;2.53;;;;;;;;;;7313205;19;162272;-16
2022/07/22 06:45:12;;;;;;;8.85;2.90;;;;;;;;;;7314473;19;163405;-16
2022/07/22 06:47:57;;;;;;;7.38;2.42;;;;;;;;;;7313705;19;154632;-15
2022/07/22 06:50:28;;;;;;;8.73;2.43;;;;;;;;;;7314749;19;154019;-16
2022/07/22 06:53:01;;;;;;;;;;;;;;;;;;7311333;19;162649;-16
2022/07/22 06:55:33;;;;;;;6.07;2.35;;;;;;;;;;7313307;19;163005;-15
2022/07/22 06:58:12;;;;;;;4.28;2.65;;;;;;;;;;7315000;19;154419;-15
2022/07/22 07:00:49;;;;;;;6.68;2.50;;;;;;;;;;7313040;19;154406;-15
2022/07/22 07:03:30;;;;;;;;;;;;;;;;;;7311419;19;162312;-16
2022/07/22 07:06:10;;;;;;;4.28;1.92;;;;;;;;;;7312434;19;163048;-15
2022/07/22 07:09:05;;;;;;;5.22;2.22;;;;;;;;;;7312814;19;154911;-16
2022/07/22 07:11:37;;;;;;;;;;;;;;;;;;7312878;19;154461;-16
2022/07/22 07:14:22;;;;;;;4.63;2.88;;;;;;;;;;7313883;19;162830;-16
2022/07/22 07:16:56;;;;;;;4.25;2.45;;;;;;;;;;7312081;19;162954;-15
2022/07/22 07:19:30;;;;;;;5.22;2.63;;;;;;;;;;7312222;19;154548;-17
2022/07/22 07:22:03;;;;;;;4.18;2.60;;;;;;;;;;7312568;19;153975;-16
2022/07/22 07:24:34;;;;;;;3.92;1.95;;;;;;;;;;7312276;19;162700;-17
2022/07/22 07:27:06;;;;;;;7.45;2.58;;;;;;;;;;7311681;19;162343;-17
2022/07/22 07:29:38;;;;;;;5.97;3.00;;;;;;;;;;7310169;19;154637;-17
2022/07/22 07:32:13;;;;;;;6.03;2.65;;;;;;;;;;7311612;19;154386;-16
2022/07/22 07:34:44;;;;;;;7.30;3.05;;;;;;;;;;7313166;19;162198;-17
2022/07/22 07:37:16;;;;;;;5.23;3.20;;;;;;;;;;7311882;19;162849;-17
2022/07/22 07:39:47;;;;;;;6.63;3.05;;;;;;;;;;7313562;19;154516;-17
2022/07/22 07:42:20;;;;;;;5.32;2.65;;;;;;;;;;7312434;19;153556;-16
2022/07/22 07:44:52;;;;;;;7.63;2.80;;;;;;;;;;7311128;19;162794;-17
2022/07/22 07:47:26;;;;;;;4.70;2.88;;;;;;;;;;7311268;19;163370;-17
2022/07/22 07:50:01;;;;;;;6.38;2.63;;;;;;;;;;7312127;19;154580;-17
2022/07/22 07:52:32;;;;;;;4.07;2.33;;;;;;;;;;7310910;19;154029;-16
2022/07/22 07:55:07;;;;;;;5.88;2.60;;;;;;;;;;7311150;19;162884;-15
2022/07/22 07:57:43;;;;;;;8.13;2.90;;;;;;;;;;7310758;19;162821;-16
2022/07/22 08:00:20;;;;;;;5.75;2.70;;;;;;;;;;7311877;19;154540;-16
2022/07/22 08:02:55;;;;;;;5.90;2.45;;;;;;;;;;7311555;19;154186;-16
2022/07/22 08:05:28;;;;;;;7.05;2.35;;;;;;;;;;7311097;19;162357;-16
2022/07/22 08:08:00;;;;;;;5.22;2.50;;;;;;;;;;7309933;19;162919;-16
2022/07/22 08:10:39;;;;;;;6.47;2.78;;;;;;;;;;7310865;19;154440;-15
2022/07/22 08:14:00;;;;;;;3.97;2.10;;;;;;;;;;7309067;19;154097;-16
2022/07/22 08:17:00;;;;;;;3.63;2.47;;;;;;;;;;7309343;19;162480;-16
2022/07/22 08:19:34;;;;;;;8.13;2.90;;;;;;;;;;7310706;19;162988;-15
2022/07/22 08:22:06;;;;;;;4.57;2.70;;;;;;;;;;7310424;19;154529;-16
2022/07/22 08:24:37;;;;;;;9.23;3.35;;;;;;;;;;7310418;19;154010;-15
2022/07/22 08:27:14;;;;;;;8.10;2.58;;;;;;;;;;7306210;19;162364;-16
2022/07/22 08:29:45;;;;;;;8.90;2.97;;;;;;;;;;7304148;19;163384;-16
2022/07/22 08:32:22;;;;;;;6.60;2.70;;;;;;;;;;7307101;19;133490;-16
2022/07/22 08:34:56;;;;;;;6.95;2.45;;;;;;;;;;7311350;19;155155;-15
2022/07/22 08:37:28;;;;;;;5.78;2.63;;;;;;;;;;7308837;19;162329;-16
2022/07/22 08:39:59;;;;;;;3.85;2.60;;;;;;;;;;7308660;19;163257;-16
2022/07/22 08:42:31;;;;;;;6.85;3.05;;;;;;;;;;7310194;19;154427;-15
2022/07/22 08:45:02;;;;;;;8.35;3.47;;;;;;;;;;7310174;19;154428;-16
2022/07/22 08:47:36;;;;;;;9.52;3.17;;;;;;;;;;7309641;19;162329;-16
2022/07/22 08:50:28;;;;;;;6.13;3.08;;;;;;;;;;7309935;19;163397;-16
2022/07/22 08:53:13;;;;;;;8.13;2.67;;;;;;;;;;7309455;19;154631;-15
2022/07/22 08:55:47;;;;;;;6.38;2.45;;;;;;;;;;7310395;19;154551;-16
2022/07/22 08:58:19;;;;;;;;;;;;;;;;;;7310398;19;162850;-15
2022/07/22 09:01:07;;;;;;;9.18;2.75;;;;;;;;;;7308623;19;163375;-14
2022/07/22 09:03:47;;;;;;;8.80;2.70;;;;;;;;;;7308491;19;155037;-16
2022/07/22 09:06:25;;;;;;;9.68;2.40;;;;;;;;;;7308586;19;154378;-16
2022/07/22 09:08:59;;;;;;;8.65;2.88;;;;;;;;;;7308617;19;162388;-16
2022/07/22 09:11:52;;;;;;;12.48;2.90;;;;;;;;;;7308895;19;163385;-22
2022/07/22 09:14:47;;;;;;;4.65;2.63;;;;;;;;;;7308691;19;154383;-16
2022/07/22 09:17:57;;;;;;;8.75;3.40;;;;;;;;;;7309517;19;154141;-16
2022/07/22 09:20:43;;;;;;;7.88;2.90;;;;;;;;;;7308218;19;162689;-16
2022/07/22 09:23:42;;;;;;;5.72;2.53;;;;;;;;;;7309764;19;163440;-17
2022/07/22 09:26:33;;;;;;;8.15;3.15;;;;;;;;;;7308695;19;154984;-16
2022/07/22 09:29:23;;;;;;;7.07;2.92;;;;;;;;;;7311207;19;154026;-16
2022/07/22 09:32:18;;;;;;;10.43;3.42;;;;;;;;;;7315358;19;162436;-16
2022/07/22 09:35:05;;;;;;;6.07;2.90;;;;;;;;;;7315204;19;162926;-17
2022/07/22 09:37:56;;;;;;;3.95;2.50;;;;;;;;;;7315865;19;154510;-17
2022/07/22 09:40:34;;;;;;;5.28;2.85;;;;;;;;;;7315651;19;153943;-16
2022/07/22 09:43:11;;;;;;;4.72;2.67;;;;;;;;;;7315430;19;162893;-16
2022/07/22 09:45:49;;;;;;;8.45;2.53;;;;;;;;;;7315149;19;162974;-15
2022/07/22 09:48:23;;;;;;;8.65;3.15;;;;;;;;;;7315442;19;154375;-16
2022/07/22 09:51:14;;;;;;;6.57;2.90;;;;;;;;;;7317034;19;154007;-16
2022/07/22 09:54:06;;;;;;;8.18;3.03;;;;;;;;;;7315214;19;164872;-16
2022/07/22 09:56:41;;;;;;;7.35;2.70;;;;;;;;;;7314893;19;162937;-15
2022/07/22 09:59:12;;;;;;;9.68;3.05;;;;;;;;;;7315305;19;154857;-16
2022/07/22 10:01:56;;;;;;;5.15;2.80;;;;;;;;;;7315090;19;153970;-16
2022/07/22 10:04:35;;;;;;;10.55;3.08;;;;;;;;;;7316137;19;162713;-16
2022/07/22 10:07:10;;;;;;;9.60;2.88;;;;;;;;;;7315143;19;163356;-16
2022/07/22 10:09:43;;;;;;;8.90;3.33;;;;;;;;;;7314973;19;154917;-16
2022/07/22 10:12:19;;;;;;;6.72;2.83;;;;;;;;;;7314798;19;154515;-16
2022/07/22 10:14:51;;;;;;;12.57;3.65;;;;;;;;;;7312989;19;162429;-16
2022/07/22 10:17:23;;;;;;;8.95;3.25;;;;;;;;;;7315830;19;163295;-16
2022/07/22 10:19:55;;;;;;;10.13;3.30;;;;;;;;;;7314820;19;154509;-16
2022/07/22 10:22:52;;;;;;;11.23;3.70;;;;;;;;;;7316173;19;154040;-16
2022/07/22 10:25:28;;;;;;;7.07;3.33;;;;;;;;;;7314217;19;162795;-16
2022/07/22 10:28:05;;;;;;;7.53;3.63;;;;;;;;;;7313824;19;162889;-16
2022/07/22 10:30:43;;;;;;;7.28;3.40;;;;;;;;;;7315793;19;154367;-16
2022/07/22 10:33:17;;;;;;;8.90;3.70;;;;;;;;;;7315673;19;153931;-16
2022/07/22 10:35:57;;;;;;;7.25;3.30;;;;;;;;;;7312940;19;161843;-16
2022/07/22 10:38:31;;;;;;;8.27;3.30;;;;;;;;;;7313614;19;163478;-16
2022/07/22 10:41:04;;;;;;;6.45;3.40;;;;;;;;;;7314512;19;154416;-16
2022/07/22 10:43:50;;;;;;;9.93;3.75;;;;;;;;;;7315654;19;153990;-16
2022/07/22 10:46:44;;;;;;;7.45;2.97;;;;;;;;;;7314772;19;162781;-16
2022/07/22 10:49:18;;;;;;;9.95;2.92;;;;;;;;;;7313093;19;162918;-16
2022/07/22 10:52:16;;;;;;;7.15;3.20;;;;;;;;;;7314846;19;154591;-16
2022/07/22 10:55:19;;;;;;;6.28;3.58;;;;;;;;;;7312652;19;154388;-16
2022/07/22 10:57:51;;;;;;;13.70;3.97;;;;;;;;;;7314891;19;162365;-16
2022/07/22 11:00:34;;;;;;;13.05;3.70;;;;;;;;;;7314512;19;163310;-16
2022/07/22 11:03:06;;;;;;;7.40;3.60;;;;;;;;;;7314856;19;154413;-16
2022/07/22 11:05:37;;;;;;;8.02;3.47;;;;;;;;;;7314512;19;153955;-16
2022/07/22 11:08:12;;;;;;;5.25;3.08;;;;;;;;;;7314148;19;162222;-16
2022/07/22 11:10:49;;;;;;;11.80;4.15;;;;;;;;;;7314293;19;162774;-16
2022/07/22 11:13:33;;;;;;;12.30;3.80;;;;;;;;;;7314642;19;154017;-16
2022/07/22 11:16:25;;;;;;;8.88;3.65;;;;;;;;;;7312484;19;153943;-16
2022/07/22 11:19:06;;;;;;;11.55;3.97;;;;;;;;;;7314235;19;162719;-16
2022/07/22 11:21:38;;;;;;;9.77;3.95;;;;;;;;;;7314238;19;162690;-16
2022/07/22 11:24:12;;;;;;;9.07;3.95;;;;;;;;;;7314414;19;154503;-16
2022/07/22 11:26:45;;;;;;;17.05;4.00;;;;;;;;;;7313965;19;154063;-16
2022/07/22 11:29:18;;;;;;;;;;;;;;;;;;7312723;19;162277;-16
2022/07/22 11:31:52;;;;;;;;;;;;;;;;;;7314779;19;162956;-16
2022/07/22 11:34:27;;;;;;;10.82;3.63;;;;;;;;;;7312054;19;154697;-16
2022/07/22 11:37:02;;;;;;;9.55;3.60;;;;;;;;;;7312763;19;153586;-16
2022/07/22 11:39:33;;;;;;;10.90;3.92;;;;;;;;;;7311639;19;162471;-19
2022/07/22 11:42:07;;;;;;;10.27;3.17;;;;;;;;;;7313400;19;163006;-16
2022/07/22 11:44:42;;;;;;;11.65;3.70;;;;;;;;;;7313697;19;154789;-17
2022/07/22 11:47:20;;;;;;;8.48;3.60;;;;;;;;;;7313366;19;154620;-16
2022/07/22 11:49:53;;;;;;;10.25;3.38;;;;;;;;;;7313116;19;162878;-15
2022/07/22 11:52:24;;;;;;;13.85;3.67;;;;;;;;;;7310319;19;163271;-16
2022/07/22 11:54:55;;;;;;;7.55;3.35;;;;;;;;;;7312652;19;154452;-16
2022/07/22 11:57:27;;;;;;;9.60;3.75;;;;;;;;;;7313063;19;155068;-16
2022/07/22 11:59:58;;;;;;;9.52;3.05;;;;;;;;;;7312855;19;162222;-16
2022/07/22 12:02:32;;;;;;;8.98;3.17;;;;;;;;;;7313104;19;162886;-16
2022/07/22 12:05:08;;;;;;;4.93;3.35;;;;;;;;;;7313025;19;154130;-16
2022/07/22 12:07:59;;;;;;;12.10;3.33;;;;;;;;;;7312756;19;154286;-16
2022/07/22 12:10:31;;;;;;;5.60;3.20;;;;;;;;;;7312624;19;162316;-16
2022/07/22 12:13:02;;;;;;;9.35;3.47;;;;;;;;;;7312588;19;163176;-16
2022/07/22 12:15:33;;;;;;;5.95;3.30;;;;;;;;;;7311680;19;154475;-16
2022/07/22 12:18:24;;;;;;;9.35;2.90;;;;;;;;;;7312450;19;154644;-17
2022/07/22 12:20:57;;;;;;;6.55;3.15;;;;;;;;;;7312202;19;162743;-16
2022/07/22 12:23:28;;;;;;;12.85;3.42;;;;;;;;;;7312389;19;163303;-16
2022/07/22 12:26:02;;;;;;;13.40;3.13;;;;;;;;;;7312413;19;154784;-15
2022/07/22 12:28:34;;;;;;;7.28;2.85;;;;;;;;;;7309669;19;154207;-16
2022/07/22 12:31:06;;;;;;;8.60;2.83;;;;;;;;;;7311600;19;162450;-16
2022/07/22 12:33:48;;;;;;;7.43;3.10;;;;;;;;;;7311580;19;163228;-16
2022/07/22 12:36:20;;;;;;;8.13;2.70;;;;;;;;;;7310588;19;154401;-16
2022/07/22 12:38:51;;;;;;;6.60;2.40;;;;;;;;;;7312028;19;153933;-16
2022/07/22 12:41:30;;;;;;;5.88;3.03;;;;;;;;;;7311712;19;162271;-16
2022/07/22 12:44:01;;;;;;;7.20;3.45;;;;;;;;;;7309986;19;163842;-15
2022/07/22 12:46:35;;;;;;;7.32;3.08;;;;;;;;;;7310017;19;154525;-16
2022/07/22 12:49:09;;;;;;;8.95;3.22;;;;;;;;;;7311261;19;154293;-16
2022/07/22 12:51:40;;;;;;;8.35;3.33;;;;;;;;;;7309822;19;162371;-16
2022/07/22 12:54:12;;;;;;;13.57;3.30;;;;;;;;;;7311242;19;162839;-16
2022/07/22 12:56:44;;;;;;;4.97;2.47;;;;;;;;;;7309599;19;154495;-16
2022/07/22 12:59:15;;;;;;;7.85;2.58;;;;;;;;;;7311199;19;154389;-16
2022/07/22 13:01:48;;;;;;;6.35;3.00;;;;;;;;;;7310902;19;162787;-16
2022/07/22 13:04:22;;;;;;;9.10;2.80;;;;;;;;;;7316171;19;162886;-17
2022/07/22 13:06:53;;;;;;;7.13;2.70;;;;;;;;;;7317976;19;154515;-16
2022/07/22 13:09:25;;;;;;;11.00;3.13;;;;;;;;;;7316248;19;153955;-15
2022/07/22 13:11:56;;;;;;;6.25;3.08;;;;;;;;;;7317467;19;162134;-17
2022/07/22 13:14:27;;;;;;;8.35;3.25;;;;;;;;;;7316768;19;163436;-16
2022/07/22 13:17:01;;;;;;;8.02;2.58;;;;;;;;;;7316173;19;154822;-16
2022/07/22 13:19:38;;;;;;;5.20;2.40;;;;;;;;;;7317552;19;153860;-16
2022/07/22 13:22:13;;;;;;;6.18;2.60;;;;;;;;;;7316866;19;162219;-17
2022/07/22 13:24:44;;;;;;;4.65;2.20;;;;;;;;;;7316793;19;163390;-16
2022/07/22 13:27:15;;;;;;;3.30;2.28;;;;;;;;;;7317093;19;154796;-16
2022/07/22 13:29:47;;;;;;;6.30;2.85;;;;;;;;;;7315467;19;153939;-16
2022/07/22 13:32:18;;;;;;;8.77;2.72;;;;;;;;;;7316713;19;162854;-16
2022/07/22 13:34:54;;;;;;;4.88;2.65;;;;;;;;;;7316526;19;162785;-17
2022/07/22 13:37:26;;;;;;;5.97;2.67;;;;;;;;;;7315407;19;154524;-16
2022/07/22 13:39:57;;;;;;;3.50;2.00;;;;;;;;;;7317229;19;154329;-16
2022/07/22 13:42:29;;;;;;;6.57;2.72;;;;;;;;;;7316515;19;162285;-16
2022/07/22 13:45:00;;;;;;;5.88;2.78;;;;;;;;;;7314824;19;163465;-16
2022/07/22 13:47:32;;;;;;;3.13;2.40;;;;;;;;;;7317063;19;154446;-16
2022/07/22 13:50:07;;;;;;;6.03;2.53;;;;;;;;;;7316842;19;153969;-16
2022/07/22 13:52:38;;;;;;;5.55;3.22;;;;;;;;;;7316346;19;162183;-16
2022/07/22 13:55:11;;;;;;;4.85;2.10;;;;;;;;;;7316317;19;163235;-16
2022/07/22 13:57:43;;;;;;;7.00;2.45;;;;;;;;;;7314915;19;154444;-16
2022/07/22 14:00:15;;;;;;;;;;;;;;;;;;7317088;19;154052;-16
2022/07/22 14:02:46;;;;;;;2.60;2.33;;;;;;;;;;7315914;19;162368;-15
2022/07/22 14:05:20;;;;;;;5.93;2.47;;;;;;;;;;7315987;19;163211;-16
2022/07/22 14:07:52;;;;;;;7.47;3.15;;;;;;;;;;7316189;19;154453;-18
2022/07/22 14:10:23;;;;;;;4.32;2.40;;;;;;;;;;7316040;19;153923;-15
2022/07/22 14:12:54;;;;;;;2.78;2.50;;;;;;;;;;7315601;19;162279;-15
2022/07/22 14:15:26;;;;;;;5.30;2.67;;;;;;;;;;7312009;19;163466;-16
2022/07/22 14:17:57;;;;;;;7.38;3.22;;;;;;;;;;7314059;19;154454;-16
2022/07/22 14:20:31;;;;;;;3.83;2.60;;;;;;;;;;7315491;19;154018;-15
2022/07/22 14:23:02;;;;;;;4.00;2.72;;;;;;;;;;7315376;19;162235;-15
2022/07/22 14:25:34;;;;;;;6.25;3.17;;;;;;;;;;7315526;19;163250;-16
2022/07/22 14:28:09;;;;;;;6.55;2.78;;;;;;;;;;7316103;19;154452;-16
2022/07/22 14:31:00;;;;;;;5.97;2.60;;;;;;;;;;7315905;19;153538;-16
2022/07/22 14:33:32;;;;;;;4.00;2.60;;;;;;;;;;7315309;19;162677;-16
2022/07/22 14:36:06;;;;;;;4.55;2.33;;;;;;;;;;7315194;19;162953;-16
2022/07/22 14:38:38;;;;;;;5.22;2.67;;;;;;;;;;7313405;19;154484;-18
2022/07/22 14:41:09;;;;;;;6.43;3.20;;;;;;;;;;7315319;19;154050;-17
2022/07/22 14:43:41;;;;;;;3.88;2.10;;;;;;;;;;7314632;19;162266;-16
2022/07/22 14:46:13;;;;;;;4.80;2.63;;;;;;;;;;7314980;19;163159;-16
2022/07/22 14:48:45;;;;;;;3.45;2.13;;;;;;;;;;7315315;19;154478;-15
2022/07/22 14:51:19;;;;;;;;;;;;;;;;;;7314000;19;154016;-16
2022/07/22 14:53:51;;;;;;;11.73;2.65;;;;;;;;;;7313351;19;162474;-16
2022/07/22 14:56:22;;;;;;;6.55;2.53;;;;;;;;;;7314541;19;163307;-16
2022/07/22 14:58:53;;;;;;;4.82;2.72;;;;;;;;;;7312758;19;154524;-16
2022/07/22 15:01:24;;;;;;;5.20;2.45;;;;;;;;;;7313392;19;153969;-16
2022/07/22 15:03:57;;;;;;;6.47;2.72;;;;;;;;;;7314587;19;162233;-16
2022/07/22 15:06:33;;;;;;;3.67;2.15;;;;;;;;;;7314228;19;163459;-15
2022/07/22 15:09:14;;;;;;;3.35;2.13;;;;;;;;;;7314716;19;154752;-16
2022/07/22 15:11:45;;;;;;;5.65;2.45;;;;;;;;;;7314636;19;153916;-16